Latest Weather Observations for Applethorpe

IDN60801

Issued at 10:32 am EST Tuesday 25 April 2017 (issued every 30 minutes, with the page automatically refreshed every 10 minutes)

About weather observations | Map of weather stations | Latest weather observations for NSW | Other Formats
Station Details ID: 041175 Name: APPLETHORPE Lat: -28.62 Lon: 151.95 Height: 871.6 m
Data from the previous 72 hours. | See also: Recent months at Applethorpe
Date/Time
EST
Temp
°C
App
Temp
°C
Dew
Point
°C
Rel
Hum
%
Delta-T
°C
Wind Press
QNH
hPa
Press
MSL
hPa
Rain since
9am
mm
Dir  Spd
km/h
Gust
km/h
Spd
kts
Gust
kts
25/10:30am 19.6 18.6 8.8 49 5.9 NNW 4 9 2 5 1021.3 1018.6 0.0
25/10:00am 18.8 17.9 10.6 59 4.6 NNE 6 11 3 6 1021.6 1018.9 0.0
25/09:30am 17.3 17.2 12.1 71 3.0 NE 4 7 2 4 1021.7 1019.0 0.0
25/09:00am 15.2 14.9 11.6 79 2.0 NNE 4 6 2 3 1021.9 1019.2 0.0
25/08:30am 14.1 14.8 13.4 96 0.4 E 2 4 1 2 1021.8 1019.1 0.0
25/08:00am 13.2 13.7 12.8 97 0.2 NE 2 6 1 3 1021.7 1019.0 0.0
25/07:30am 12.3 12.1 11.9 97 0.2 NE 4 7 2 4 1021.5 1018.8 0.0
25/07:00am 11.9 12.0 11.5 97 0.2 NNE 2 6 1 3 1021.6 1018.9 0.0
25/06:30am 9.8 9.6 9.2 96 0.3 CALM 0 0 0 0 1021.2 1018.4 0.0
25/06:00am 8.8 8.5 8.8 100 0.0 CALM 0 0 0 0 1021.0 1018.2 0.0
25/05:30am 8.6 8.3 8.6 100 0.0 CALM 0 0 0 0 1020.9 1018.1 0.0
25/05:00am 8.6 8.2 8.2 97 0.2 CALM 0 0 0 0 1020.5 1017.8 0.0
25/04:30am 8.5 8.2 8.5 100 0.0 CALM 0 0 0 0 1020.3 1017.6 0.0
25/04:00am 8.4 8.0 8.4 100 0.0 CALM 0 0 0 0 1020.4 1017.7 0.0
25/03:30am 8.1 7.7 8.1 100 0.0 CALM 0 0 0 0 1020.6 1017.9 0.0
25/03:00am 8.4 8.0 8.4 100 0.0 CALM 0 0 0 0 1021.0 1018.2 0.0
25/02:30am 8.8 8.5 8.6 99 0.1 CALM 0 0 0 0 1021.0 1018.2 0.0
25/02:00am 9.0 8.7 8.8 99 0.1 CALM 0 0 0 0 1021.3 1018.6 0.0
25/01:30am 9.1 8.9 8.9 99 0.1 CALM 0 0 0 0 1021.5 1018.8 0.0
25/01:00am 9.0 8.8 9.0 100 0.0 CALM 0 0 0 0 1021.7 1019.0 0.0
25/12:30am 9.6 9.4 9.0 96 0.3 CALM 0 0 0 0 1022.0 1019.3 0.0
25/12:00am 10.1 10.1 9.7 97 0.2 CALM 0 0 0 0 1022.2 1019.4 0.0
 
Date/Time
EST
Temp
°C
App
Temp
°C
Dew
Point
°C
Rel
Hum
%
Delta-T
°C
Wind Press
QNH
hPa
Press
MSL
hPa
Rain since
9am
mm
Dir  Spd
km/h
Gust
km/h
Spd
kts
Gust
kts
24/11:30pm 9.7 9.2 9.5 99 0.1 NNE 2 4 1 2 1022.5 1019.8 0.0
24/11:00pm 9.9 9.9 9.7 99 0.1 CALM 0 0 0 0 1022.9 1020.2 0.0
24/10:30pm 10.1 10.1 9.7 97 0.2 CALM 0 0 0 0 1023.2 1020.6 0.0
24/10:00pm 10.8 11.0 10.4 97 0.2 CALM 0 0 0 0 1023.5 1020.8 0.0
24/09:30pm 10.9 10.6 10.1 95 0.4 N 2 4 1 2 1023.2 1020.6 0.0
24/09:00pm 11.0 11.1 10.3 95 0.4 CALM 0 0 0 0 1023.1 1020.4 0.0
24/08:30pm 11.9 12.2 10.8 93 0.6 CALM 0 0 0 0 1023.1 1020.4 0.0
24/08:00pm 12.4 12.3 10.7 89 0.9 E 2 2 1 1 1023.0 1020.3 0.0
24/07:30pm 13.1 13.0 10.9 86 1.2 E 2 4 1 2 1022.9 1020.2 0.0
24/07:00pm 13.0 13.2 10.6 85 1.3 CALM 0 4 0 2 1022.6 1019.9 0.0
24/06:30pm 13.4 13.7 10.8 84 1.4 CALM 0 2 0 1 1022.3 1019.6 0.0
24/06:00pm 14.9 14.9 11.1 78 2.1 ENE 2 4 1 2 1022.2 1019.4 0.0
24/05:30pm 16.1 15.7 11.1 72 2.8 ENE 4 6 2 3 1021.8 1019.1 0.0
24/05:00pm 17.1 16.4 10.2 64 3.8 E 4 11 2 6 1021.6 1018.9 0.0
24/04:30pm 18.7 17.7 10.3 58 4.7 ENE 6 9 3 5 1021.4 1018.7 0.0
24/04:00pm 19.2 18.0 10.3 56 5.0 E 7 15 4 8 1021.3 1018.6 0.0
24/03:30pm 20.7 19.6 10.7 52 5.7 ENE 7 15 4 8 1021.2 1018.4 0.0
24/03:00pm 20.0 18.8 10.4 54 5.4 NE 7 17 4 9 1021.3 1018.6 0.0
24/02:30pm 19.0 18.0 11.1 60 4.5 E 7 11 4 6 1021.3 1018.6 0.0
24/02:00pm 21.5 20.8 11.5 53 5.8 NE 6 11 3 6 1021.5 1018.8 0.0
24/01:30pm 19.4 18.7 10.1 55 5.2 ENE 4 7 2 4 1021.7 1019.0 0.0
24/01:00pm 20.6 19.7 10.7 53 5.6 ENE 6 9 3 5 1021.9 1019.2 0.0
24/12:30pm 20.7 19.6 9.8 49 6.1 NE 6 15 3 8 1022.3 1019.6 0.0
24/12:00pm 20.0 18.7 9.1 49 6.0 E 6 13 3 7 1022.7 1020.0 0.0
24/11:30am 19.6 18.4 9.7 52 5.5 ESE 6 9 3 5 1023.1 1020.4 0.0
24/11:00am 19.2 18.2 10.2 56 5.0 ENE 6 9 3 5 1023.7 1021.0 0.0
24/10:30am 18.7 17.8 10.5 59 4.6 E 6 13 3 7 1024.4 1021.8 0.0
24/10:00am 18.2 17.3 10.7 61 4.2 SE 6 17 3 9 1024.6 1021.9 0.0
24/09:30am 17.6 16.7 11.4 67 3.5 E 7 11 4 6 1024.7 1022.0 0.0
24/09:00am 16.0 15.1 11.4 74 2.6 ESE 7 15 4 8 1024.8 1022.1 0.0
24/08:30am 14.7 13.9 10.9 78 2.1 ESE 6 9 3 5 1024.7 1022.0 0.0
24/08:00am 13.8 13.5 11.6 86 1.2 ENE 4 9 2 5 1024.4 1021.8 0.0
24/07:30am 13.4 12.8 11.6 89 1.0 E 6 9 3 5 1024.1 1021.4 0.0
24/07:00am 12.8 12.1 11.5 92 0.7 E 6 11 3 6 1023.9 1021.2 0.0
24/06:30am 12.7 12.4 11.6 93 0.6 E 4 9 2 5 1023.7 1021.0 0.0
24/06:00am 12.7 12.4 11.6 93 0.6 ENE 4 9 2 5 1023.2 1020.6 0.0
24/05:30am 12.7 12.4 11.6 93 0.6 ESE 4 7 2 4 1023.0 1020.3 0.0
24/05:00am 12.7 12.1 11.8 94 0.5 E 6 9 3 5 1023.0 1020.3 0.0
24/04:30am 12.6 12.1 11.9 95 0.4 E 6 15 3 8 1022.8 1020.1 0.0
24/04:00am 12.0 12.1 11.6 97 0.2 ENE 2 6 1 3 1022.8 1020.1 0.0
24/03:30am 11.2 11.5 10.8 97 0.2 CALM 0 0 0 0 1022.8 1020.1 0.0
24/03:00am 11.9 12.3 11.4 97 0.3 CALM 0 4 0 2 1023.1 1020.4 0.0
24/02:30am 11.9 12.2 11.0 94 0.5 CALM 0 4 0 2 1023.4 1020.7 0.0
24/02:00am 12.0 12.3 10.9 93 0.6 CALM 0 2 0 1 1023.7 1021.0 0.0
24/01:30am 11.8 12.0 10.7 93 0.6 CALM 0 0 0 0 1023.8 1021.1 0.0
24/01:00am 11.6 11.8 10.5 93 0.6 CALM 0 0 0 0 1024.0 1021.3 0.0
24/12:30am 12.3 12.6 10.8 90 0.8 CALM 0 0 0 0 1024.2 1021.5 0.0
24/12:00am 11.9 12.2 10.8 93 0.6 CALM 0 0 0 0 1024.4 1021.8 0.0
 
Date/Time
EST
Temp
°C
App
Temp
°C
Dew
Point
°C
Rel
Hum
%
Delta-T
°C
Wind Press
QNH
hPa
Press
MSL
hPa
Rain since
9am
mm
Dir  Spd
km/h
Gust
km/h
Spd
kts
Gust
kts
23/11:30pm 11.5 11.7 10.4 93 0.6 CALM 0 0 0 0 1024.7 1022.0 0.0
23/11:00pm 12.6 12.9 11.0 90 0.9 CALM 0 0 0 0 1024.8 1022.1 0.0
23/10:30pm 12.2 12.4 10.5 89 0.9 CALM 0 0 0 0 1024.8 1022.1 0.0
23/10:00pm 12.7 12.6 10.7 88 1.1 NNE 2 6 1 3 1025.0 1022.3 0.0
23/09:30pm 13.3 13.8 11.5 89 1.0 CALM 0 0 0 0 1025.1 1022.4 0.0
23/09:00pm 13.7 14.1 11.2 85 1.4 CALM 0 4 0 2 1025.2 1022.5 0.0
23/08:30pm 13.9 13.7 10.4 79 1.9 ESE 2 4 1 2 1025.1 1022.4 0.0
23/08:00pm 14.0 14.1 10.3 78 2.0 CALM 0 2 0 1 1024.8 1022.1 0.0
23/07:30pm 13.9 14.0 10.2 78 2.0 CALM 0 0 0 0 1024.6 1021.9 0.0
23/07:00pm 13.8 13.6 9.1 73 2.5 CALM 0 0 0 0 1024.3 1021.7 0.0
23/06:30pm 13.7 13.6 9.4 75 2.3 CALM 0 2 0 1 1024.0 1021.3 0.0
23/06:00pm 14.5 14.0 9.5 72 2.7 E 2 4 1 2 1023.8 1021.1 0.0
23/05:30pm 15.5 14.7 9.8 69 3.1 NE 4 6 2 3 1023.6 1020.9 0.0
23/05:00pm 16.8 16.0 9.6 62 3.9 ENE 4 7 2 4 1023.4 1020.7 0.0
23/04:30pm 17.9 16.7 9.7 58 4.5 ENE 6 9 3 5 1022.9 1020.2 0.0
23/04:00pm 19.4 18.0 9.4 52 5.5 ENE 7 17 4 9 1022.7 1020.0 0.0
23/03:30pm 20.5 19.4 10.0 51 5.9 E 6 13 3 7 1022.6 1019.9 0.0
23/03:00pm 20.4 19.3 9.8 50 5.9 E 6 13 3 7 1022.7 1020.0 0.0
23/02:30pm 20.4 19.2 9.6 50 6.0 ESE 6 15 3 8 1022.7 1020.0 0.0
23/02:00pm 19.9 18.6 9.2 50 5.9 ESE 6 13 3 7 1022.9 1020.2 0.0
23/01:30pm 20.6 19.2 8.7 46 6.5 SSE 6 9 3 5 1023.1 1020.4 0.0
23/01:00pm 20.2 18.5 8.4 46 6.4 ESE 7 15 4 8 1023.5 1020.8 0.0
23/12:30pm 20.4 19.2 9.6 50 6.0 ESE 6 11 3 6 1023.8 1021.1 0.0
23/12:00pm 19.6 18.5 8.3 48 6.1 NE 4 7 2 4 1024.2 1021.5 0.0
23/11:30am 19.2 17.4 7.8 47 6.1 ESE 7 15 4 8 1024.7 1022.0 0.0
23/11:00am 18.9 17.4 9.2 53 5.3 E 7 11 4 6 1025.3 1022.7 0.0
23/10:30am 18.9 17.3 8.8 52 5.5 ESE 7 13 4 7 1025.5 1022.9 0.0
23/10:00am 17.9 16.4 9.3 57 4.7 ESE 7 13 4 7 1025.7 1023.1 0.0
23/09:30am 17.0 15.7 9.9 63 3.9 E 7 11 4 6 1026.0 1023.3 0.0
23/09:00am 16.2 15.0 10.2 67 3.3 E 7 11 4 6 1026.1 1023.4 0.0
23/08:30am 14.5 13.4 10.5 77 2.2 ENE 7 13 4 7 1026.0 1023.3 0.0
23/08:00am 12.7 11.8 10.7 88 1.1 ENE 6 9 3 5 1026.0 1023.3 0.0
23/07:30am 11.3 11.2 10.7 96 0.3 ESE 2 4 1 2 1025.9 1023.2 0.0
23/07:00am 9.1 8.9 8.9 99 0.1 CALM 0 0 0 0 1025.4 1022.8 0.0
23/06:30am 10.0 9.6 9.6 97 0.2 NE 2 4 1 2 1025.2 1022.5 0.0
23/06:00am 10.2 9.8 9.8 97 0.2 ESE 2 4 1 2 1024.8 1022.1 0.0
23/05:30am 10.0 9.9 9.6 97 0.2 CALM 0 4 0 2 1024.6 1021.9 0.0
23/05:00am 9.7 9.6 9.3 97 0.2 CALM 0 0 0 0 1024.2 1021.5 0.0
23/04:30am 9.5 9.4 9.3 99 0.1 CALM 0 2 0 1 1024.1 1021.4 0.0
23/04:00am 9.3 8.8 9.3 100 0.0 ESE 2 4 1 2 1024.1 1021.4 0.0
23/03:30am 9.3 9.1 9.1 99 0.1 CALM 0 0 0 0 1024.1 1021.4 0.0
23/03:00am 9.9 9.4 9.3 96 0.3 E 2 4 1 2 1024.3 1021.7 0.0
23/02:30am 10.2 10.1 9.6 96 0.3 CALM 0 0 0 0 1024.6 1021.9 0.0
23/02:00am 11.0 10.7 10.1 94 0.5 E 2 4 1 2 1024.9 1022.2 0.0
23/01:30am 11.6 11.3 10.1 90 0.8 E 2 6 1 3 1025.2 1022.5 0.0
23/01:00am 11.9 11.3 10.4 90 0.8 E 4 7 2 4 1025.4 1022.8 0.0
23/12:30am 11.9 11.7 10.6 92 0.7 E 2 6 1 3 1025.6 1023.0 0.0
23/12:00am 12.1 11.5 10.4 89 0.9 E 4 11 2 6 1025.9 1023.2 0.0
 
Date/Time
EST
Temp
°C
App
Temp
°C
Dew
Point
°C
Rel
Hum
%
Delta-T
°C
Wind Press
QNH
hPa
Press
MSL
hPa
Rain since
9am
mm
Dir  Spd
km/h
Gust
km/h
Spd
kts
Gust
kts
22/11:30pm 12.4 11.9 10.7 89 0.9 E 4 7 2 4 1026.2 1023.5 0.0
22/11:00pm 12.8 12.4 11.0 89 1.0 E 4 9 2 5 1026.3 1023.7 0.0
22/10:30pm 13.3 12.6 11.3 88 1.1 ENE 6 11 3 6 1026.4 1023.8 0.0
22/10:00pm 13.5 13.0 11.9 90 0.9 ENE 6 17 3 9 1026.5 1023.9 0.0
22/09:30pm 13.6 13.0 11.8 89 1.0 E 6 11 3 6 1026.6 1024.0 0.0
22/09:00pm 13.4 13.3 12.0 91 0.8 ENE 4 9 2 5 1026.7 1024.1 0.0
22/08:30pm 13.3 13.1 11.9 91 0.8 ENE 4 7 2 4 1026.5 1023.9 0.0
22/08:00pm 13.3 13.1 11.9 91 0.8 E 4 9 2 5 1026.2 1023.5 0.0
22/07:30pm 13.2 12.9 11.6 90 0.9 E 4 7 2 4 1025.9 1023.2 0.0
22/07:00pm 13.1 13.1 11.3 89 1.0 E 2 6 1 3 1025.7 1023.1 0.0
22/06:30pm 13.8 13.9 11.5 86 1.3 E 2 6 1 3 1025.4 1022.8 0.0
22/06:00pm 14.4 13.9 11.9 85 1.4 ESE 6 13 3 7 1025.1 1022.4 0.0
22/05:30pm 15.1 14.4 11.9 81 1.8 E 7 15 4 8 1025.1 1022.4 0.0
22/05:00pm 15.5 14.8 11.4 76 2.3 E 6 11 3 6 1025.1 1022.4 0.0
22/04:30pm 15.6 14.3 11.1 74 2.5 ESE 9 17 5 9 1025.1 1022.4 0.0
22/04:00pm 16.7 15.8 11.4 71 3.0 E 7 15 4 8 1025.0 1022.3 0.0
22/03:30pm 17.3 16.3 11.1 67 3.5 E 7 13 4 7 1024.8 1022.1 0.0
22/03:00pm 17.5 16.4 10.5 63 3.9 E 7 15 4 8 1024.6 1021.9 0.0
22/02:30pm 18.2 17.0 11.5 65 3.8 E 9 17 5 9 1024.7 1022.0 0.0
22/02:00pm 17.9 16.8 11.8 67 3.5 E 9 15 5 8 1024.7 1022.0 0.0
22/01:30pm 18.1 17.0 10.8 62 4.1 ESE 7 13 4 7 1025.0 1022.3 0.0
22/01:00pm 17.3 15.8 10.4 64 3.8 E 9 19 5 10 1025.4 1022.8 0.0
22/12:30pm 16.9 15.3 11.4 70 3.1 E 11 17 6 9 1025.7 1023.1 0.0
22/12:00pm 18.9 18.2 12.1 64 3.9 ENE 7 15 4 8 1026.1 1023.4 0.0
22/11:30am 16.7 14.9 10.8 68 3.3 ESE 11 22 6 12 1026.6 1024.0 0.0
22/11:00am 17.4 16.3 11.8 69 3.2 E 9 19 5 10 1027.2 1024.5 0.0

Other Formats:

Comma delimited format used in spreadsheet applications
http://www.bom.gov.au/fwo/IDN60801/IDN60801.94553.axf

JavaScript Object Notation format (JSON) in row-major order
http://www.bom.gov.au/fwo/IDN60801/IDN60801.94553.json